sensor_id;sensor_type;location;lat;lon;timestamp;pressure;altitude;pressure_sealevel;temperature;humidity
56689;BME280;42565;53.342;-1.534;2023-04-08T00:01:25;99780.45;;;10.71;51.20
56689;BME280;42565;53.342;-1.534;2023-04-08T00:03:52;99783.12;;;10.83;51.42
56689;BME280;42565;53.342;-1.534;2023-04-08T00:06:18;99785.24;;;10.80;51.05
56689;BME280;42565;53.342;-1.534;2023-04-08T00:08:45;99781.38;;;10.67;51.73
56689;BME280;42565;53.342;-1.534;2023-04-08T00:11:13;99786.90;;;10.45;52.36
56689;BME280;42565;53.342;-1.534;2023-04-08T00:13:40;99783.95;;;10.62;52.58
56689;BME280;42565;53.342;-1.534;2023-04-08T00:16:07;99788.04;;;10.22;52.76
56689;BME280;42565;53.342;-1.534;2023-04-08T00:18:35;99784.02;;;10.61;52.15
56689;BME280;42565;53.342;-1.534;2023-04-08T00:21:02;99786.21;;;10.60;52.61
56689;BME280;42565;53.342;-1.534;2023-04-08T00:23:30;99790.20;;;10.46;52.85
56689;BME280;42565;53.342;-1.534;2023-04-08T00:25:57;99786.13;;;10.73;52.55
56689;BME280;42565;53.342;-1.534;2023-04-08T00:28:24;99787.39;;;10.33;53.24
56689;BME280;42565;53.342;-1.534;2023-04-08T00:30:52;99786.92;;;10.44;53.39
56689;BME280;42565;53.342;-1.534;2023-04-08T00:33:19;99787.48;;;10.09;53.42
56689;BME280;42565;53.342;-1.534;2023-04-08T00:35:45;99787.45;;;10.19;53.46
56689;BME280;42565;53.342;-1.534;2023-04-08T00:38:14;99789.66;;;9.99;54.47
56689;BME280;42565;53.342;-1.534;2023-04-08T00:40:40;99786.28;;;10.16;54.68
56689;BME280;42565;53.342;-1.534;2023-04-08T00:43:07;99791.42;;;10.08;54.27
56689;BME280;42565;53.342;-1.534;2023-04-08T00:45:34;99791.89;;;10.02;53.47
56689;BME280;42565;53.342;-1.534;2023-04-08T00:48:01;99789.57;;;10.52;53.33
56689;BME280;42565;53.342;-1.534;2023-04-08T00:50:29;99788.66;;;10.29;53.51
56689;BME280;42565;53.342;-1.534;2023-04-08T00:52:57;99787.13;;;10.42;53.05
56689;BME280;42565;53.342;-1.534;2023-04-08T00:55:24;99786.35;;;10.44;52.79
56689;BME280;42565;53.342;-1.534;2023-04-08T00:57:50;99786.70;;;10.57;52.55
56689;BME280;42565;53.342;-1.534;2023-04-08T01:00:17;99789.11;;;10.30;53.18
56689;BME280;42565;53.342;-1.534;2023-04-08T01:02:49;99787.19;;;10.58;53.37
56689;BME280;42565;53.342;-1.534;2023-04-08T01:05:26;99787.69;;;10.48;53.65
56689;BME280;42565;53.342;-1.534;2023-04-08T01:07:54;99790.82;;;10.25;54.02
56689;BME280;42565;53.342;-1.534;2023-04-08T01:10:27;99792.78;;;9.98;54.49
56689;BME280;42565;53.342;-1.534;2023-04-08T01:12:56;99793.08;;;10.31;54.41
56689;BME280;42565;53.342;-1.534;2023-04-08T01:15:26;99793.13;;;10.19;54.69
56689;BME280;42565;53.342;-1.534;2023-04-08T01:17:56;99794.30;;;9.84;55.29
56689;BME280;42565;53.342;-1.534;2023-04-08T01:20:26;99797.24;;;9.56;55.68
56689;BME280;42565;53.342;-1.534;2023-04-08T01:23:02;99797.60;;;9.61;56.16
56689;BME280;42565;53.342;-1.534;2023-04-08T01:25:34;99799.85;;;9.82;55.53
56689;BME280;42565;53.342;-1.534;2023-04-08T01:28:04;99800.92;;;9.58;55.65
56689;BME280;42565;53.342;-1.534;2023-04-08T01:30:33;99801.29;;;9.59;55.91
56689;BME280;42565;53.342;-1.534;2023-04-08T01:33:01;99803.15;;;9.87;56.01
56689;BME280;42565;53.342;-1.534;2023-04-08T01:35:30;99800.61;;;9.65;56.81
56689;BME280;42565;53.342;-1.534;2023-04-08T01:37:57;99797.09;;;9.84;57.04
56689;BME280;42565;53.342;-1.534;2023-04-08T01:40:25;99799.69;;;9.02;57.49
56689;BME280;42565;53.342;-1.534;2023-04-08T01:42:55;99802.65;;;9.13;57.43
56689;BME280;42565;53.342;-1.534;2023-04-08T01:45:24;99805.91;;;9.19;57.33
56689;BME280;42565;53.342;-1.534;2023-04-08T01:47:52;99806.28;;;9.36;57.95
56689;BME280;42565;53.342;-1.534;2023-04-08T01:50:20;99804.90;;;8.56;59.19
56689;BME280;42565;53.342;-1.534;2023-04-08T01:52:48;99804.77;;;8.79;59.70
56689;BME280;42565;53.342;-1.534;2023-04-08T01:55:16;99805.01;;;8.81;59.65
56689;BME280;42565;53.342;-1.534;2023-04-08T01:57:48;99804.90;;;8.85;60.26
56689;BME280;42565;53.342;-1.534;2023-04-08T02:00:20;99803.90;;;8.78;59.64
56689;BME280;42565;53.342;-1.534;2023-04-08T02:02:49;99803.53;;;9.33;58.91
56689;BME280;42565;53.342;-1.534;2023-04-08T02:05:16;99800.91;;;9.20;57.98
56689;BME280;42565;53.342;-1.534;2023-04-08T02:07:43;99804.78;;;9.43;58.32
56689;BME280;42565;53.342;-1.534;2023-04-08T02:10:10;99806.76;;;9.39;57.70
56689;BME280;42565;53.342;-1.534;2023-04-08T02:12:37;99808.47;;;9.87;57.72
56689;BME280;42565;53.342;-1.534;2023-04-08T02:15:06;99809.12;;;9.14;58.55
56689;BME280;42565;53.342;-1.534;2023-04-08T02:17:42;99808.99;;;9.26;58.16
56689;BME280;42565;53.342;-1.534;2023-04-08T02:20:12;99807.73;;;9.44;57.79
56689;BME280;42565;53.342;-1.534;2023-04-08T02:22:46;99804.96;;;9.68;58.24
56689;BME280;42565;53.342;-1.534;2023-04-08T02:25:16;99806.13;;;9.68;57.99
56689;BME280;42565;53.342;-1.534;2023-04-08T02:27:48;99808.01;;;9.19;58.44
56689;BME280;42565;53.342;-1.534;2023-04-08T02:30:16;99804.04;;;9.17;58.52
56689;BME280;42565;53.342;-1.534;2023-04-08T02:32:44;99804.74;;;9.41;58.51
56689;BME280;42565;53.342;-1.534;2023-04-08T02:35:14;99809.31;;;9.80;57.58
56689;BME280;42565;53.342;-1.534;2023-04-08T02:37:44;99812.18;;;9.51;57.38
56689;BME280;42565;53.342;-1.534;2023-04-08T02:40:23;99812.88;;;9.58;57.35
56689;BME280;42565;53.342;-1.534;2023-04-08T02:42:51;99813.76;;;9.23;57.77
56689;BME280;42565;53.342;-1.534;2023-04-08T02:45:18;99815.20;;;9.27;58.18
56689;BME280;42565;53.342;-1.534;2023-04-08T02:47:46;99815.92;;;9.40;58.12
56689;BME280;42565;53.342;-1.534;2023-04-08T02:50:14;99819.52;;;9.42;58.22
56689;BME280;42565;53.342;-1.534;2023-04-08T02:52:41;99820.12;;;9.38;58.19
56689;BME280;42565;53.342;-1.534;2023-04-08T02:55:08;99820.90;;;9.24;58.51
56689;BME280;42565;53.342;-1.534;2023-04-08T02:57:35;99819.67;;;9.21;58.75
56689;BME280;42565;53.342;-1.534;2023-04-08T03:00:04;99818.78;;;9.24;58.65
56689;BME280;42565;53.342;-1.534;2023-04-08T03:02:31;99819.40;;;8.99;59.16
56689;BME280;42565;53.342;-1.534;2023-04-08T03:04:57;99820.39;;;9.10;59.06
56689;BME280;42565;53.342;-1.534;2023-04-08T03:07:25;99820.17;;;9.07;59.16
56689;BME280;42565;53.342;-1.534;2023-04-08T03:09:53;99822.48;;;9.34;58.11
56689;BME280;42565;53.342;-1.534;2023-04-08T03:12:20;99819.39;;;8.82;59.29
56689;BME280;42565;53.342;-1.534;2023-04-08T03:14:48;99821.50;;;8.92;59.61
56689;BME280;42565;53.342;-1.534;2023-04-08T03:17:16;99822.55;;;8.54;59.29
56689;BME280;42565;53.342;-1.534;2023-04-08T03:19:43;99822.86;;;9.01;59.63
56689;BME280;42565;53.342;-1.534;2023-04-08T03:22:10;99822.83;;;8.87;59.43
56689;BME280;42565;53.342;-1.534;2023-04-08T03:24:37;99826.31;;;8.99;58.76
56689;BME280;42565;53.342;-1.534;2023-04-08T03:27:04;99831.61;;;9.18;58.75
56689;BME280;42565;53.342;-1.534;2023-04-08T03:29:31;99830.76;;;8.72;59.46
56689;BME280;42565;53.342;-1.534;2023-04-08T03:31:59;99830.58;;;8.89;59.57
56689;BME280;42565;53.342;-1.534;2023-04-08T03:34:26;99838.38;;;8.88;59.50
56689;BME280;42565;53.342;-1.534;2023-04-08T03:36:53;99838.58;;;8.69;59.44
56689;BME280;42565;53.342;-1.534;2023-04-08T03:39:20;99837.36;;;8.90;58.90
56689;BME280;42565;53.342;-1.534;2023-04-08T03:41:46;99835.85;;;9.15;58.56
56689;BME280;42565;53.342;-1.534;2023-04-08T03:44:14;99838.60;;;8.88;59.02
56689;BME280;42565;53.342;-1.534;2023-04-08T03:46:41;99835.47;;;8.75;59.04
56689;BME280;42565;53.342;-1.534;2023-04-08T03:49:08;99837.07;;;8.76;59.22
56689;BME280;42565;53.342;-1.534;2023-04-08T03:51:35;99838.31;;;9.06;58.41
56689;BME280;42565;53.342;-1.534;2023-04-08T03:54:02;99839.77;;;9.41;57.53
56689;BME280;42565;53.342;-1.534;2023-04-08T03:56:29;99837.75;;;9.43;57.29
56689;BME280;42565;53.342;-1.534;2023-04-08T03:58:56;99836.11;;;9.37;57.13
56689;BME280;42565;53.342;-1.534;2023-04-08T04:01:23;99836.34;;;9.35;57.06
56689;BME280;42565;53.342;-1.534;2023-04-08T04:03:50;99836.07;;;9.44;56.87
56689;BME280;42565;53.342;-1.534;2023-04-08T04:06:17;99836.80;;;8.99;57.91
56689;BME280;42565;53.342;-1.534;2023-04-08T04:08:43;99839.47;;;8.92;58.18
56689;BME280;42565;53.342;-1.534;2023-04-08T04:11:10;99838.22;;;8.99;58.01
56689;BME280;42565;53.342;-1.534;2023-04-08T04:13:37;99842.70;;;9.17;56.81
56689;BME280;42565;53.342;-1.534;2023-04-08T04:16:05;99844.50;;;9.21;56.18
56689;BME280;42565;53.342;-1.534;2023-04-08T04:18:32;99842.55;;;9.82;53.72
56689;BME280;42565;53.342;-1.534;2023-04-08T04:20:59;99841.78;;;9.65;53.75
56689;BME280;42565;53.342;-1.534;2023-04-08T04:23:26;99843.66;;;9.38;54.89
56689;BME280;42565;53.342;-1.534;2023-04-08T04:25:53;99840.92;;;9.43;55.14
56689;BME280;42565;53.342;-1.534;2023-04-08T04:28:20;99841.11;;;9.21;55.38
56689;BME280;42565;53.342;-1.534;2023-04-08T04:30:46;99843.47;;;8.91;55.44
56689;BME280;42565;53.342;-1.534;2023-04-08T04:33:14;99843.51;;;9.34;55.39
56689;BME280;42565;53.342;-1.534;2023-04-08T04:35:41;99838.48;;;8.98;56.28
56689;BME280;42565;53.342;-1.534;2023-04-08T04:38:07;99841.27;;;9.06;55.61
56689;BME280;42565;53.342;-1.534;2023-04-08T04:40:34;99847.50;;;8.85;56.59
56689;BME280;42565;53.342;-1.534;2023-04-08T04:43:01;99847.51;;;8.65;57.07
56689;BME280;42565;53.342;-1.534;2023-04-08T04:45:28;99846.00;;;8.43;57.21
56689;BME280;42565;53.342;-1.534;2023-04-08T04:47:54;99847.03;;;8.91;57.08
56689;BME280;42565;53.342;-1.534;2023-04-08T04:50:21;99848.19;;;8.66;56.88
56689;BME280;42565;53.342;-1.534;2023-04-08T04:52:48;99853.00;;;8.72;56.80
56689;BME280;42565;53.342;-1.534;2023-04-08T04:55:16;99855.01;;;8.25;56.66
56689;BME280;42565;53.342;-1.534;2023-04-08T04:57:43;99855.29;;;8.25;57.51
56689;BME280;42565;53.342;-1.534;2023-04-08T05:00:11;99859.80;;;8.79;56.91
56689;BME280;42565;53.342;-1.534;2023-04-08T05:02:38;99857.85;;;8.89;56.14
56689;BME280;42565;53.342;-1.534;2023-04-08T05:05:06;99858.11;;;8.92;55.44
56689;BME280;42565;53.342;-1.534;2023-04-08T05:07:35;99854.71;;;8.95;55.10
56689;BME280;42565;53.342;-1.534;2023-04-08T05:10:02;99864.34;;;8.44;56.66
56689;BME280;42565;53.342;-1.534;2023-04-08T05:12:29;99865.41;;;8.65;56.09
56689;BME280;42565;53.342;-1.534;2023-04-08T05:14:57;99865.07;;;8.43;56.55
56689;BME280;42565;53.342;-1.534;2023-04-08T05:17:24;99868.14;;;8.20;57.17
56689;BME280;42565;53.342;-1.534;2023-04-08T05:19:51;99868.53;;;8.73;57.23
56689;BME280;42565;53.342;-1.534;2023-04-08T05:22:18;99868.42;;;8.58;57.75
56689;BME280;42565;53.342;-1.534;2023-04-08T05:24:46;99871.41;;;8.24;58.25
56689;BME280;42565;53.342;-1.534;2023-04-08T05:27:13;99873.84;;;8.72;58.31
56689;BME280;42565;53.342;-1.534;2023-04-08T05:29:40;99879.10;;;8.23;57.96
56689;BME280;42565;53.342;-1.534;2023-04-08T05:32:07;99878.69;;;8.17;58.60
56689;BME280;42565;53.342;-1.534;2023-04-08T05:34:34;99882.72;;;8.28;58.63
56689;BME280;42565;53.342;-1.534;2023-04-08T05:37:02;99883.65;;;8.33;58.50
56689;BME280;42565;53.342;-1.534;2023-04-08T05:39:29;99887.90;;;8.17;58.39
56689;BME280;42565;53.342;-1.534;2023-04-08T05:41:55;99888.40;;;8.25;58.45
56689;BME280;42565;53.342;-1.534;2023-04-08T05:44:23;99890.72;;;8.24;57.60
56689;BME280;42565;53.342;-1.534;2023-04-08T05:46:50;99892.82;;;8.59;57.18
56689;BME280;42565;53.342;-1.534;2023-04-08T05:49:17;99896.25;;;8.10;57.87
56689;BME280;42565;53.342;-1.534;2023-04-08T05:51:45;99894.19;;;8.66;57.06
56689;BME280;42565;53.342;-1.534;2023-04-08T05:54:12;99896.33;;;9.50;54.81
56689;BME280;42565;53.342;-1.534;2023-04-08T05:56:39;99900.39;;;9.30;54.98
56689;BME280;42565;53.342;-1.534;2023-04-08T05:59:06;99903.64;;;9.06;54.90
56689;BME280;42565;53.342;-1.534;2023-04-08T06:01:32;99904.32;;;9.42;54.93
56689;BME280;42565;53.342;-1.534;2023-04-08T06:04:00;99912.27;;;8.97;56.32
56689;BME280;42565;53.342;-1.534;2023-04-08T06:06:27;99911.28;;;8.69;57.10
56689;BME280;42565;53.342;-1.534;2023-04-08T06:08:54;99908.32;;;8.50;57.10
56689;BME280;42565;53.342;-1.534;2023-04-08T06:11:21;99907.74;;;8.42;58.17
56689;BME280;42565;53.342;-1.534;2023-04-08T06:13:48;99908.77;;;8.69;57.22
56689;BME280;42565;53.342;-1.534;2023-04-08T06:16:16;99915.11;;;9.16;56.76
56689;BME280;42565;53.342;-1.534;2023-04-08T06:18:43;99917.12;;;8.99;57.45
56689;BME280;42565;53.342;-1.534;2023-04-08T06:21:10;99919.48;;;8.68;57.95
56689;BME280;42565;53.342;-1.534;2023-04-08T06:23:37;99919.17;;;8.82;58.08
56689;BME280;42565;53.342;-1.534;2023-04-08T06:26:04;99923.00;;;9.35;57.22
56689;BME280;42565;53.342;-1.534;2023-04-08T06:28:31;99926.73;;;9.25;57.27
56689;BME280;42565;53.342;-1.534;2023-04-08T06:30:59;99930.03;;;8.79;58.61
56689;BME280;42565;53.342;-1.534;2023-04-08T06:33:26;99931.52;;;9.42;57.12
56689;BME280;42565;53.342;-1.534;2023-04-08T06:36:01;99931.07;;;9.63;56.50
56689;BME280;42565;53.342;-1.534;2023-04-08T06:38:29;99934.19;;;9.41;56.65
56689;BME280;42565;53.342;-1.534;2023-04-08T06:41:00;99938.10;;;9.69;56.47
56689;BME280;42565;53.342;-1.534;2023-04-08T06:43:27;99944.45;;;9.10;57.39
56689;BME280;42565;53.342;-1.534;2023-04-08T06:45:55;99944.09;;;9.31;56.77
56689;BME280;42565;53.342;-1.534;2023-04-08T06:48:22;99945.78;;;9.90;55.30
56689;BME280;42565;53.342;-1.534;2023-04-08T06:50:49;99949.41;;;10.17;54.63
56689;BME280;42565;53.342;-1.534;2023-04-08T06:53:16;99947.31;;;9.27;55.96
56689;BME280;42565;53.342;-1.534;2023-04-08T06:55:43;99947.98;;;9.66;56.35
56689;BME280;42565;53.342;-1.534;2023-04-08T06:58:09;99946.95;;;9.94;55.67
56689;BME280;42565;53.342;-1.534;2023-04-08T07:00:36;99952.38;;;9.96;55.21
56689;BME280;42565;53.342;-1.534;2023-04-08T07:03:03;99952.90;;;9.89;55.62
56689;BME280;42565;53.342;-1.534;2023-04-08T07:05:30;99954.09;;;9.89;55.90
56689;BME280;42565;53.342;-1.534;2023-04-08T07:07:57;99953.89;;;10.15;55.47
56689;BME280;42565;53.342;-1.534;2023-04-08T07:10:24;99960.81;;;9.17;57.07
56689;BME280;42565;53.342;-1.534;2023-04-08T07:12:51;99960.34;;;9.42;58.68
56689;BME280;42565;53.342;-1.534;2023-04-08T07:15:19;99957.41;;;9.62;57.08
56689;BME280;42565;53.342;-1.534;2023-04-08T07:17:46;99962.28;;;10.23;55.54
56689;BME280;42565;53.342;-1.534;2023-04-08T07:20:14;99965.22;;;10.15;56.27
56689;BME280;42565;53.342;-1.534;2023-04-08T07:22:41;99969.47;;;10.12;56.03
56689;BME280;42565;53.342;-1.534;2023-04-08T07:25:09;99971.04;;;10.32;55.37
56689;BME280;42565;53.342;-1.534;2023-04-08T07:27:36;99970.11;;;10.54;55.25
56689;BME280;42565;53.342;-1.534;2023-04-08T07:30:05;99972.66;;;10.38;55.80
56689;BME280;42565;53.342;-1.534;2023-04-08T07:32:33;99975.94;;;9.99;56.38
56689;BME280;42565;53.342;-1.534;2023-04-08T07:35:00;99975.72;;;9.79;58.43
56689;BME280;42565;53.342;-1.534;2023-04-08T07:37:28;99982.16;;;9.52;58.48
56689;BME280;42565;53.342;-1.534;2023-04-08T07:39:55;99983.85;;;10.23;56.51
56689;BME280;42565;53.342;-1.534;2023-04-08T07:42:22;99986.90;;;10.51;56.72
56689;BME280;42565;53.342;-1.534;2023-04-08T07:44:49;99989.98;;;10.66;56.17
56689;BME280;42565;53.342;-1.534;2023-04-08T07:47:16;99991.55;;;9.50;57.51
56689;BME280;42565;53.342;-1.534;2023-04-08T07:49:45;99990.11;;;10.46;56.07
56689;BME280;42565;53.342;-1.534;2023-04-08T07:52:12;99989.92;;;10.55;55.38
56689;BME280;42565;53.342;-1.534;2023-04-08T07:54:39;99996.71;;;10.40;54.62
56689;BME280;42565;53.342;-1.534;2023-04-08T07:57:06;99995.74;;;10.77;53.93
56689;BME280;42565;53.342;-1.534;2023-04-08T07:59:32;99993.85;;;10.28;54.33
56689;BME280;42565;53.342;-1.534;2023-04-08T08:02:00;99991.48;;;11.00;54.13
56689;BME280;42565;53.342;-1.534;2023-04-08T08:04:27;99991.58;;;10.94;52.87
56689;BME280;42565;53.342;-1.534;2023-04-08T08:06:54;99992.63;;;10.87;53.87
56689;BME280;42565;53.342;-1.534;2023-04-08T08:09:21;99993.19;;;9.95;56.29
56689;BME280;42565;53.342;-1.534;2023-04-08T08:11:47;99998.11;;;10.52;54.95
56689;BME280;42565;53.342;-1.534;2023-04-08T08:14:15;100000.31;;;10.61;54.65
56689;BME280;42565;53.342;-1.534;2023-04-08T08:16:42;100001.71;;;10.14;55.68
56689;BME280;42565;53.342;-1.534;2023-04-08T08:19:09;100001.01;;;10.32;55.20
56689;BME280;42565;53.342;-1.534;2023-04-08T08:21:37;100002.53;;;10.34;55.55
56689;BME280;42565;53.342;-1.534;2023-04-08T08:24:04;100004.88;;;11.29;53.34
56689;BME280;42565;53.342;-1.534;2023-04-08T08:26:34;100007.30;;;10.91;53.52
56689;BME280;42565;53.342;-1.534;2023-04-08T08:29:01;100003.75;;;11.04;54.61
56689;BME280;42565;53.342;-1.534;2023-04-08T08:31:29;99999.37;;;10.90;54.68
56689;BME280;42565;53.342;-1.534;2023-04-08T08:33:56;100000.08;;;11.15;53.52
56689;BME280;42565;53.342;-1.534;2023-04-08T08:36:23;99998.56;;;11.77;52.23
56689;BME280;42565;53.342;-1.534;2023-04-08T08:38:50;99996.49;;;11.60;51.22
56689;BME280;42565;53.342;-1.534;2023-04-08T08:41:17;99998.20;;;11.17;52.00
56689;BME280;42565;53.342;-1.534;2023-04-08T08:43:44;100000.66;;;12.09;51.74
56689;BME280;42565;53.342;-1.534;2023-04-08T08:46:15;100006.87;;;11.75;52.78
56689;BME280;42565;53.342;-1.534;2023-04-08T08:48:42;100007.90;;;10.48;54.07
56689;BME280;42565;53.342;-1.534;2023-04-08T08:51:11;100012.00;;;11.27;55.06
56689;BME280;42565;53.342;-1.534;2023-04-08T08:53:38;100009.97;;;12.12;53.18
56689;BME280;42565;53.342;-1.534;2023-04-08T08:56:08;100011.42;;;12.43;51.22
56689;BME280;42565;53.342;-1.534;2023-04-08T08:58:35;100017.40;;;11.69;52.41
56689;BME280;42565;53.342;-1.534;2023-04-08T09:01:03;100012.80;;;12.11;52.10
56689;BME280;42565;53.342;-1.534;2023-04-08T09:04:07;100011.58;;;12.29;53.16
56689;BME280;42565;53.342;-1.534;2023-04-08T09:06:35;100011.82;;;12.40;50.76
56689;BME280;42565;53.342;-1.534;2023-04-08T09:09:02;100016.40;;;12.12;50.79
56689;BME280;42565;53.342;-1.534;2023-04-08T09:11:30;100016.13;;;11.93;49.72
56689;BME280;42565;53.342;-1.534;2023-04-08T09:13:57;100012.91;;;12.75;48.84
56689;BME280;42565;53.342;-1.534;2023-04-08T09:16:24;100021.93;;;12.42;49.61
56689;BME280;42565;53.342;-1.534;2023-04-08T09:18:51;100021.46;;;12.13;50.15
56689;BME280;42565;53.342;-1.534;2023-04-08T09:21:24;100017.59;;;12.81;48.95
56689;BME280;42565;53.342;-1.534;2023-04-08T09:23:52;100017.70;;;12.68;48.04
56689;BME280;42565;53.342;-1.534;2023-04-08T09:26:20;100021.06;;;12.89;49.29
56689;BME280;42565;53.342;-1.534;2023-04-08T09:28:58;100020.38;;;13.63;48.03
56689;BME280;42565;53.342;-1.534;2023-04-08T09:31:27;100017.73;;;12.93;45.64
56689;BME280;42565;53.342;-1.534;2023-04-08T09:33:56;100018.70;;;13.10;47.67
56689;BME280;42565;53.342;-1.534;2023-04-08T09:36:25;100022.49;;;12.93;48.02
56689;BME280;42565;53.342;-1.534;2023-04-08T09:38:52;100021.19;;;12.94;48.78
56689;BME280;42565;53.342;-1.534;2023-04-08T09:41:21;100022.53;;;11.64;50.09
56689;BME280;42565;53.342;-1.534;2023-04-08T09:43:50;100023.59;;;11.77;51.01
56689;BME280;42565;53.342;-1.534;2023-04-08T09:46:22;100022.62;;;12.72;51.13
56689;BME280;42565;53.342;-1.534;2023-04-08T09:48:57;100026.63;;;12.13;49.85
56689;BME280;42565;53.342;-1.534;2023-04-08T09:51:30;100023.00;;;12.36;47.49
56689;BME280;42565;53.342;-1.534;2023-04-08T09:54:01;100029.11;;;12.07;46.68
56689;BME280;42565;53.342;-1.534;2023-04-08T09:56:36;100024.06;;;11.87;48.67
56689;BME280;42565;53.342;-1.534;2023-04-08T09:59:12;100022.63;;;11.89;48.19
56689;BME280;42565;53.342;-1.534;2023-04-08T10:01:45;100024.61;;;11.75;48.14
56689;BME280;42565;53.342;-1.534;2023-04-08T10:04:14;100022.85;;;12.73;46.04
56689;BME280;42565;53.342;-1.534;2023-04-08T10:06:42;100017.03;;;13.02;45.86
56689;BME280;42565;53.342;-1.534;2023-04-08T10:09:10;100021.76;;;12.94;44.73
56689;BME280;42565;53.342;-1.534;2023-04-08T10:11:37;100018.04;;;12.67;46.94
56689;BME280;42565;53.342;-1.534;2023-04-08T10:14:05;100021.84;;;12.52;46.40
56689;BME280;42565;53.342;-1.534;2023-04-08T10:16:32;100015.65;;;11.92;47.89
56689;BME280;42565;53.342;-1.534;2023-04-08T10:18:59;100015.88;;;12.17;46.37
56689;BME280;42565;53.342;-1.534;2023-04-08T10:21:31;100015.11;;;12.22;46.19
56689;BME280;42565;53.342;-1.534;2023-04-08T10:24:00;100010.29;;;12.15;47.90
56689;BME280;42565;53.342;-1.534;2023-04-08T10:26:32;100018.17;;;11.36;49.25
56689;BME280;42565;53.342;-1.534;2023-04-08T10:29:37;100013.06;;;11.70;48.50
56689;BME280;42565;53.342;-1.534;2023-04-08T10:32:04;100010.04;;;11.94;48.94
56689;BME280;42565;53.342;-1.534;2023-04-08T10:34:32;100015.24;;;12.67;47.21
56689;BME280;42565;53.342;-1.534;2023-04-08T10:36:59;100010.23;;;12.32;48.43
56689;BME280;42565;53.342;-1.534;2023-04-08T10:39:26;100012.35;;;12.04;48.45
56689;BME280;42565;53.342;-1.534;2023-04-08T10:41:53;100009.71;;;12.47;51.03
56689;BME280;42565;53.342;-1.534;2023-04-08T10:44:22;100007.30;;;12.55;48.76
56689;BME280;42565;53.342;-1.534;2023-04-08T10:46:51;100006.40;;;12.42;49.01
56689;BME280;42565;53.342;-1.534;2023-04-08T10:49:18;100004.49;;;12.63;48.31
56689;BME280;42565;53.342;-1.534;2023-04-08T10:51:46;100006.53;;;13.58;46.65
56689;BME280;42565;53.342;-1.534;2023-04-08T10:54:16;100008.22;;;13.85;45.52
56689;BME280;42565;53.342;-1.534;2023-04-08T10:56:44;100004.29;;;14.21;46.37
56689;BME280;42565;53.342;-1.534;2023-04-08T10:59:13;100003.81;;;14.20;45.98
56689;BME280;42565;53.342;-1.534;2023-04-08T11:01:40;100000.31;;;14.11;45.11
56689;BME280;42565;53.342;-1.534;2023-04-08T11:04:11;99996.07;;;13.99;45.72
56689;BME280;42565;53.342;-1.534;2023-04-08T11:06:41;99993.05;;;14.07;44.60
56689;BME280;42565;53.342;-1.534;2023-04-08T11:09:10;99991.03;;;13.72;44.90
56689;BME280;42565;53.342;-1.534;2023-04-08T11:11:37;99992.59;;;13.69;44.92
56689;BME280;42565;53.342;-1.534;2023-04-08T11:14:05;99982.94;;;13.97;45.60
56689;BME280;42565;53.342;-1.534;2023-04-08T11:16:33;99981.78;;;14.03;45.50
56689;BME280;42565;53.342;-1.534;2023-04-08T11:19:02;99981.25;;;13.96;45.60
56689;BME280;42565;53.342;-1.534;2023-04-08T11:21:30;99978.31;;;14.06;44.04
56689;BME280;42565;53.342;-1.534;2023-04-08T11:23:57;99975.75;;;14.04;44.55
56689;BME280;42565;53.342;-1.534;2023-04-08T11:26:25;99978.22;;;14.05;43.90
56689;BME280;42565;53.342;-1.534;2023-04-08T11:28:54;99975.10;;;14.46;43.21
56689;BME280;42565;53.342;-1.534;2023-04-08T11:31:22;99974.68;;;13.87;44.24
56689;BME280;42565;53.342;-1.534;2023-04-08T11:33:52;99972.62;;;13.27;45.35
56689;BME280;42565;53.342;-1.534;2023-04-08T11:36:20;99972.60;;;13.52;43.74
56689;BME280;42565;53.342;-1.534;2023-04-08T11:38:46;99976.01;;;13.78;43.18
56689;BME280;42565;53.342;-1.534;2023-04-08T11:41:15;99972.06;;;14.23;43.87
56689;BME280;42565;53.342;-1.534;2023-04-08T11:43:58;99967.71;;;13.85;45.62
56689;BME280;42565;53.342;-1.534;2023-04-08T11:46:25;99968.28;;;14.16;46.92
56689;BME280;42565;53.342;-1.534;2023-04-08T11:48:58;99972.95;;;14.57;44.63
56689;BME280;42565;53.342;-1.534;2023-04-08T11:51:25;99974.47;;;14.04;45.38
56689;BME280;42565;53.342;-1.534;2023-04-08T11:53:53;99980.75;;;14.68;46.01
56689;BME280;42565;53.342;-1.534;2023-04-08T11:56:21;99978.11;;;15.20;40.51
56689;BME280;42565;53.342;-1.534;2023-04-08T11:58:48;99977.84;;;14.69;42.42
56689;BME280;42565;53.342;-1.534;2023-04-08T12:01:16;99966.65;;;14.09;43.26
56689;BME280;42565;53.342;-1.534;2023-04-08T12:04:00;99975.99;;;14.44;41.78
56689;BME280;42565;53.342;-1.534;2023-04-08T12:06:28;99978.34;;;14.75;41.51
56689;BME280;42565;53.342;-1.534;2023-04-08T12:08:55;99963.79;;;14.01;42.12
56689;BME280;42565;53.342;-1.534;2023-04-08T12:11:23;99963.87;;;14.26;39.70
56689;BME280;42565;53.342;-1.534;2023-04-08T12:13:50;99964.14;;;14.01;40.64
56689;BME280;42565;53.342;-1.534;2023-04-08T12:16:18;99979.06;;;14.45;37.48
56689;BME280;42565;53.342;-1.534;2023-04-08T12:18:45;99964.60;;;14.19;39.30
56689;BME280;42565;53.342;-1.534;2023-04-08T12:21:13;99961.06;;;14.65;38.62
56689;BME280;42565;53.342;-1.534;2023-04-08T12:23:40;99961.68;;;16.03;35.02
56689;BME280;42565;53.342;-1.534;2023-04-08T12:26:08;99958.58;;;16.39;34.75
56689;BME280;42565;53.342;-1.534;2023-04-08T12:28:35;99959.95;;;16.03;33.53
56689;BME280;42565;53.342;-1.534;2023-04-08T12:31:02;99957.41;;;15.57;35.34
56689;BME280;42565;53.342;-1.534;2023-04-08T12:33:30;99965.29;;;16.48;33.91
56689;BME280;42565;53.342;-1.534;2023-04-08T12:35:57;99951.75;;;16.11;34.43
56689;BME280;42565;53.342;-1.534;2023-04-08T12:38:25;99955.52;;;15.74;31.89
56689;BME280;42565;53.342;-1.534;2023-04-08T12:40:53;99958.40;;;15.60;30.74
56689;BME280;42565;53.342;-1.534;2023-04-08T12:43:21;99957.90;;;15.50;31.01
56689;BME280;42565;53.342;-1.534;2023-04-08T12:45:48;99948.52;;;15.62;31.80
56689;BME280;42565;53.342;-1.534;2023-04-08T12:48:15;99965.94;;;14.98;32.26
56689;BME280;42565;53.342;-1.534;2023-04-08T12:50:42;99949.94;;;14.82;34.21
56689;BME280;42565;53.342;-1.534;2023-04-08T12:53:10;99944.20;;;15.47;34.67
56689;BME280;42565;53.342;-1.534;2023-04-08T12:55:38;99940.79;;;15.64;31.22
56689;BME280;42565;53.342;-1.534;2023-04-08T12:58:05;99941.64;;;16.14;31.94